sensor_id;sensor_type;location;lat;lon;timestamp;pressure;altitude;pressure_sealevel;temperature;humidity
71996;BME280;59862;47.732;7.346;2023-03-25T00:00:13;97676.19;;;8.70;73.62
71996;BME280;59862;47.732;7.346;2023-03-25T00:02:43;97684.91;;;8.68;73.46
71996;BME280;59862;47.732;7.346;2023-03-25T00:05:14;97684.91;;;8.64;73.64
71996;BME280;59862;47.732;7.346;2023-03-25T00:07:43;97700.61;;;8.67;73.32
71996;BME280;59862;47.732;7.346;2023-03-25T00:10:12;97695.41;;;8.70;73.55
71996;BME280;59862;47.732;7.346;2023-03-25T00:12:39;97700.95;;;8.68;73.39
71996;BME280;59862;47.732;7.346;2023-03-25T00:15:09;97702.75;;;8.72;73.21
71996;BME280;59862;47.732;7.346;2023-03-25T00:17:37;97697.59;;;8.70;73.15
71996;BME280;59862;47.732;7.346;2023-03-25T00:20:06;97694.23;;;8.72;72.76
71996;BME280;59862;47.732;7.346;2023-03-25T00:22:37;97705.08;;;8.71;73.00
71996;BME280;59862;47.732;7.346;2023-03-25T00:25:11;97700.95;;;8.68;73.08
71996;BME280;59862;47.732;7.346;2023-03-25T00:27:41;97708.48;;;8.65;73.24
71996;BME280;59862;47.732;7.346;2023-03-25T00:30:10;97698.31;;;8.60;73.37
71996;BME280;59862;47.732;7.346;2023-03-25T00:32:37;97705.22;;;8.55;73.55
71996;BME280;59862;47.732;7.346;2023-03-25T00:35:06;97686.00;;;8.55;73.38
71996;BME280;59862;47.732;7.346;2023-03-25T00:37:33;97708.86;;;8.58;73.17
71996;BME280;59862;47.732;7.346;2023-03-25T00:40:02;97695.48;;;8.58;73.13
71996;BME280;59862;47.732;7.346;2023-03-25T00:42:31;97709.73;;;8.54;73.08
71996;BME280;59862;47.732;7.346;2023-03-25T00:45:00;97698.19;;;8.54;72.98
71996;BME280;59862;47.732;7.346;2023-03-25T00:47:27;97703.38;;;8.55;72.92
71996;BME280;59862;47.732;7.346;2023-03-25T00:49:55;97696.36;;;8.54;72.82
71996;BME280;59862;47.732;7.346;2023-03-25T00:52:22;97693.00;;;8.56;72.53
71996;BME280;59862;47.732;7.346;2023-03-25T00:54:49;97699.03;;;8.54;72.79
71996;BME280;59862;47.732;7.346;2023-03-25T00:57:18;97685.35;;;8.53;72.47
71996;BME280;59862;47.732;7.346;2023-03-25T00:59:46;97691.66;;;8.56;72.38
71996;BME280;59862;47.732;7.346;2023-03-25T01:02:14;97692.69;;;8.55;72.31
71996;BME280;59862;47.732;7.346;2023-03-25T01:04:41;97695.52;;;8.54;72.21
71996;BME280;59862;47.732;7.346;2023-03-25T01:07:11;97696.52;;;8.57;72.17
71996;BME280;59862;47.732;7.346;2023-03-25T01:09:40;97687.00;;;8.54;72.53
71996;BME280;59862;47.732;7.346;2023-03-25T01:12:10;97680.97;;;8.56;72.05
71996;BME280;59862;47.732;7.346;2023-03-25T01:14:37;97669.61;;;8.54;71.76
71996;BME280;59862;47.732;7.346;2023-03-25T01:17:05;97658.05;;;8.58;71.85
71996;BME280;59862;47.732;7.346;2023-03-25T01:19:32;97663.39;;;8.62;71.46
71996;BME280;59862;47.732;7.346;2023-03-25T01:22:01;97654.48;;;8.65;71.51
71996;BME280;59862;47.732;7.346;2023-03-25T01:24:28;97660.48;;;8.67;71.30
71996;BME280;59862;47.732;7.346;2023-03-25T01:26:57;97665.99;;;8.70;70.95
71996;BME280;59862;47.732;7.346;2023-03-25T01:29:24;97673.78;;;8.75;70.78
71996;BME280;59862;47.732;7.346;2023-03-25T01:31:51;97675.47;;;8.76;70.63
71996;BME280;59862;47.732;7.346;2023-03-25T01:34:19;97693.47;;;8.82;70.35
71996;BME280;59862;47.732;7.346;2023-03-25T01:36:47;97715.52;;;8.84;70.24
71996;BME280;59862;47.732;7.346;2023-03-25T01:39:17;97709.36;;;8.80;70.95
71996;BME280;59862;47.732;7.346;2023-03-25T01:41:47;97715.05;;;8.58;72.79
71996;BME280;59862;47.732;7.346;2023-03-25T01:46:53;97814.34;;;7.33;79.04
71996;BME280;59862;47.732;7.346;2023-03-25T01:49:30;97826.69;;;6.32;81.88
71996;BME280;59862;47.732;7.346;2023-03-25T01:54:55;97805.84;;;5.17;85.25
71996;BME280;59862;47.732;7.346;2023-03-25T01:57:25;97800.66;;;4.94;86.53
71996;BME280;59862;47.732;7.346;2023-03-25T01:59:53;97790.64;;;4.88;87.02
71996;BME280;59862;47.732;7.346;2023-03-25T02:02:22;97782.04;;;4.94;86.89
71996;BME280;59862;47.732;7.346;2023-03-25T02:05:14;97782.81;;;5.04;86.02
71996;BME280;59862;47.732;7.346;2023-03-25T02:07:42;97775.16;;;5.05;85.72
71996;BME280;59862;47.732;7.346;2023-03-25T02:10:12;97795.84;;;5.11;85.42
71996;BME280;59862;47.732;7.346;2023-03-25T02:12:40;97809.29;;;5.13;85.84
71996;BME280;59862;47.732;7.346;2023-03-25T02:15:10;97815.84;;;5.19;86.11
71996;BME280;59862;47.732;7.346;2023-03-25T02:23:44;97825.91;;;5.33;86.05
71996;BME280;59862;47.732;7.346;2023-03-25T02:26:38;97825.22;;;5.31;86.59
71996;BME280;59862;47.732;7.346;2023-03-25T02:32:10;97804.48;;;5.34;86.94
71996;BME280;59862;47.732;7.346;2023-03-25T02:40:11;97789.27;;;5.23;87.54
71996;BME280;59862;47.732;7.346;2023-03-25T02:43:01;97787.91;;;5.19;87.87
71996;BME280;59862;47.732;7.346;2023-03-25T02:45:24;97792.55;;;5.17;88.10
71996;BME280;59862;47.732;7.346;2023-03-25T02:47:53;97793.77;;;5.05;88.20
71996;BME280;59862;47.732;7.346;2023-03-25T02:50:33;97794.75;;;5.00;88.45
71996;BME280;59862;47.732;7.346;2023-03-25T02:53:03;97794.06;;;4.98;88.78
71996;BME280;59862;47.732;7.346;2023-03-25T02:55:34;97791.89;;;4.97;88.91
71996;BME280;59862;47.732;7.346;2023-03-25T02:58:04;97799.55;;;5.00;89.07
71996;BME280;59862;47.732;7.346;2023-03-25T03:00:35;97798.21;;;5.00;88.99
71996;BME280;59862;47.732;7.346;2023-03-25T03:03:06;97809.69;;;5.01;88.44
71996;BME280;59862;47.732;7.346;2023-03-25T03:05:38;97795.09;;;5.05;88.20
71996;BME280;59862;47.732;7.346;2023-03-25T03:08:27;97792.44;;;5.05;88.09
71996;BME280;59862;47.732;7.346;2023-03-25T03:19:35;97787.77;;;5.03;88.04
71996;BME280;59862;47.732;7.346;2023-03-25T03:22:12;97785.44;;;5.00;88.17
71996;BME280;59862;47.732;7.346;2023-03-25T03:24:46;97788.59;;;4.99;88.23
71996;BME280;59862;47.732;7.346;2023-03-25T03:27:25;97787.55;;;4.96;88.23
71996;BME280;59862;47.732;7.346;2023-03-25T03:29:56;97780.39;;;4.93;88.33
71996;BME280;59862;47.732;7.346;2023-03-25T03:32:29;97776.05;;;4.92;88.27
71996;BME280;59862;47.732;7.346;2023-03-25T03:35:10;97771.41;;;4.94;88.09
71996;BME280;59862;47.732;7.346;2023-03-25T03:37:37;97763.43;;;4.94;87.99
71996;BME280;59862;47.732;7.346;2023-03-25T03:40:07;97767.94;;;4.93;87.94
71996;BME280;59862;47.732;7.346;2023-03-25T03:42:39;97766.41;;;4.91;87.76
71996;BME280;59862;47.732;7.346;2023-03-25T03:45:57;97760.74;;;4.90;87.75
71996;BME280;59862;47.732;7.346;2023-03-25T03:47:45;97763.56;;;4.88;87.81
71996;BME280;59862;47.732;7.346;2023-03-25T03:50:30;97769.53;;;4.86;87.99
71996;BME280;59862;47.732;7.346;2023-03-25T03:55:35;97793.03;;;4.95;88.02
71996;BME280;59862;47.732;7.346;2023-03-25T03:58:05;97806.68;;;4.96;88.12
71996;BME280;59862;47.732;7.346;2023-03-25T04:00:47;97812.03;;;5.00;88.14
71996;BME280;59862;47.732;7.346;2023-03-25T04:03:24;97817.02;;;5.03;88.10
71996;BME280;59862;47.732;7.346;2023-03-25T04:05:53;97818.08;;;5.10;88.11
71996;BME280;59862;47.732;7.346;2023-03-25T04:08:41;97839.88;;;5.13;88.26
71996;BME280;59862;47.732;7.346;2023-03-25T04:11:06;97819.03;;;5.05;88.61
71996;BME280;59862;47.732;7.346;2023-03-25T04:13:38;97819.81;;;4.97;89.37
71996;BME280;59862;47.732;7.346;2023-03-25T04:16:06;97808.14;;;4.94;89.97
71996;BME280;59862;47.732;7.346;2023-03-25T04:18:34;97801.36;;;4.96;90.39
71996;BME280;59862;47.732;7.346;2023-03-25T04:21:01;97800.06;;;5.00;90.55
71996;BME280;59862;47.732;7.346;2023-03-25T04:23:29;97810.70;;;5.00;90.76
71996;BME280;59862;47.732;7.346;2023-03-25T04:25:57;97807.71;;;5.03;91.04
71996;BME280;59862;47.732;7.346;2023-03-25T04:28:26;97801.42;;;5.04;91.36
71996;BME280;59862;47.732;7.346;2023-03-25T04:30:54;97802.09;;;5.06;91.64
71996;BME280;59862;47.732;7.346;2023-03-25T04:33:23;97796.64;;;5.11;91.82
71996;BME280;59862;47.732;7.346;2023-03-25T04:35:51;97801.83;;;5.13;92.03
71996;BME280;59862;47.732;7.346;2023-03-25T04:38:19;97789.22;;;5.15;92.19
71996;BME280;59862;47.732;7.346;2023-03-25T04:40:47;97791.22;;;5.17;92.27
71996;BME280;59862;47.732;7.346;2023-03-25T04:43:16;97777.59;;;5.20;92.39
71996;BME280;59862;47.732;7.346;2023-03-25T04:45:44;97776.78;;;5.19;92.46
71996;BME280;59862;47.732;7.346;2023-03-25T04:48:32;97774.78;;;5.17;92.51
71996;BME280;59862;47.732;7.346;2023-03-25T04:50:57;97767.94;;;5.15;92.53
71996;BME280;59862;47.732;7.346;2023-03-25T04:53:26;97775.53;;;5.10;92.60
71996;BME280;59862;47.732;7.346;2023-03-25T04:55:54;97776.22;;;5.12;92.69
71996;BME280;59862;47.732;7.346;2023-03-25T04:58:22;97771.57;;;5.14;92.79
71996;BME280;59862;47.732;7.346;2023-03-25T05:00:50;97774.42;;;5.16;92.85
71996;BME280;59862;47.732;7.346;2023-03-25T05:03:19;97776.23;;;5.16;92.84
71996;BME280;59862;47.732;7.346;2023-03-25T05:05:53;97773.58;;;5.16;92.87
71996;BME280;59862;47.732;7.346;2023-03-25T05:08:21;97773.74;;;5.14;92.87
71996;BME280;59862;47.732;7.346;2023-03-25T05:10:49;97776.62;;;5.21;92.88
71996;BME280;59862;47.732;7.346;2023-03-25T05:13:18;97771.95;;;5.19;92.86
71996;BME280;59862;47.732;7.346;2023-03-25T05:15:46;97769.10;;;5.16;92.84
71996;BME280;59862;47.732;7.346;2023-03-25T05:18:15;97776.11;;;5.17;92.87
71996;BME280;59862;47.732;7.346;2023-03-25T05:20:44;97777.22;;;5.11;92.89
71996;BME280;59862;47.732;7.346;2023-03-25T05:23:15;97783.92;;;5.19;92.98
71996;BME280;59862;47.732;7.346;2023-03-25T05:25:45;97785.11;;;5.24;92.99
71996;BME280;59862;47.732;7.346;2023-03-25T05:28:13;97788.91;;;5.22;92.99
71996;BME280;59862;47.732;7.346;2023-03-25T05:30:43;97791.95;;;5.27;93.08
71996;BME280;59862;47.732;7.346;2023-03-25T05:33:16;97791.78;;;5.28;93.07
71996;BME280;59862;47.732;7.346;2023-03-25T05:35:44;97790.81;;;5.29;93.05
71996;BME280;59862;47.732;7.346;2023-03-25T05:38:14;97791.66;;;5.30;92.96
71996;BME280;59862;47.732;7.346;2023-03-25T05:40:45;97783.53;;;5.35;92.87
71996;BME280;59862;47.732;7.346;2023-03-25T05:43:14;97778.39;;;5.38;92.71
71996;BME280;59862;47.732;7.346;2023-03-25T05:45:42;97778.75;;;5.39;92.55
71996;BME280;59862;47.732;7.346;2023-03-25T05:48:10;97781.09;;;5.46;92.45
71996;BME280;59862;47.732;7.346;2023-03-25T05:50:38;97771.13;;;5.48;92.28
71996;BME280;59862;47.732;7.346;2023-03-25T05:53:12;97783.16;;;5.52;92.14
71996;BME280;59862;47.732;7.346;2023-03-25T05:55:42;97773.66;;;5.50;92.03
71996;BME280;59862;47.732;7.346;2023-03-25T05:58:09;97781.49;;;5.55;91.96
71996;BME280;59862;47.732;7.346;2023-03-25T06:00:37;97780.53;;;5.60;91.84
71996;BME280;59862;47.732;7.346;2023-03-25T06:03:06;97775.06;;;5.66;91.72
71996;BME280;59862;47.732;7.346;2023-03-25T06:05:33;97779.12;;;5.74;91.66
71996;BME280;59862;47.732;7.346;2023-03-25T06:08:00;97781.61;;;5.75;91.51
71996;BME280;59862;47.732;7.346;2023-03-25T06:10:29;97778.91;;;5.93;91.02
71996;BME280;59862;47.732;7.346;2023-03-25T06:12:57;97789.11;;;6.05;90.62
71996;BME280;59862;47.732;7.346;2023-03-25T06:15:24;97793.48;;;6.15;89.62
71996;BME280;59862;47.732;7.346;2023-03-25T06:17:56;97802.81;;;6.19;88.91
71996;BME280;59862;47.732;7.346;2023-03-25T06:20:24;97796.26;;;6.05;88.53
71996;BME280;59862;47.732;7.346;2023-03-25T06:22:52;97798.34;;;5.89;88.76
71996;BME280;59862;47.732;7.346;2023-03-25T06:25:20;97790.64;;;5.82;89.52
71996;BME280;59862;47.732;7.346;2023-03-25T06:27:49;97780.12;;;5.81;90.02
71996;BME280;59862;47.732;7.346;2023-03-25T06:30:19;97774.97;;;5.79;90.24
71996;BME280;59862;47.732;7.346;2023-03-25T06:32:47;97760.84;;;5.83;90.21
71996;BME280;59862;47.732;7.346;2023-03-25T06:35:17;97764.73;;;5.88;90.41
71996;BME280;59862;47.732;7.346;2023-03-25T06:37:46;97767.11;;;5.95;90.68
71996;BME280;59862;47.732;7.346;2023-03-25T06:40:14;97766.12;;;6.04;90.84
71996;BME280;59862;47.732;7.346;2023-03-25T06:42:43;97773.83;;;6.20;91.13
71996;BME280;59862;47.732;7.346;2023-03-25T06:45:11;97771.88;;;6.26;90.86
71996;BME280;59862;47.732;7.346;2023-03-25T06:47:39;97770.06;;;6.34;90.56
71996;BME280;59862;47.732;7.346;2023-03-25T06:50:06;97772.39;;;6.41;90.41
71996;BME280;59862;47.732;7.346;2023-03-25T06:52:34;97763.59;;;6.45;89.95
71996;BME280;59862;47.732;7.346;2023-03-25T06:55:02;97766.44;;;6.51;89.59
71996;BME280;59862;47.732;7.346;2023-03-25T06:57:30;97752.94;;;6.53;88.76
71996;BME280;59862;47.732;7.346;2023-03-25T06:59:57;97771.28;;;6.56;88.47
71996;BME280;59862;47.732;7.346;2023-03-25T07:02:25;97765.29;;;6.66;88.15
71996;BME280;59862;47.732;7.346;2023-03-25T07:04:52;97769.29;;;6.78;87.01
71996;BME280;59862;47.732;7.346;2023-03-25T07:07:20;97779.98;;;6.82;86.32
71996;BME280;59862;47.732;7.346;2023-03-25T07:09:51;97767.98;;;6.90;85.45
71996;BME280;59862;47.732;7.346;2023-03-25T07:12:22;97782.82;;;7.01;84.30
71996;BME280;59862;47.732;7.346;2023-03-25T07:14:54;97775.66;;;7.05;84.15
71996;BME280;59862;47.732;7.346;2023-03-25T07:17:23;97770.49;;;7.08;83.37
71996;BME280;59862;47.732;7.346;2023-03-25T07:19:50;97775.16;;;7.14;82.83
71996;BME280;59862;47.732;7.346;2023-03-25T07:22:18;97788.00;;;7.14;82.62
71996;BME280;59862;47.732;7.346;2023-03-25T07:24:45;97780.47;;;7.22;82.94
71996;BME280;59862;47.732;7.346;2023-03-25T07:27:14;97768.32;;;7.23;83.24
71996;BME280;59862;47.732;7.346;2023-03-25T07:29:41;97766.98;;;7.11;82.57
71996;BME280;59862;47.732;7.346;2023-03-25T07:32:09;97768.81;;;7.03;82.44
71996;BME280;59862;47.732;7.346;2023-03-25T07:34:36;97766.65;;;6.90;82.97
71996;BME280;59862;47.732;7.346;2023-03-25T07:37:04;97759.80;;;6.87;83.28
71996;BME280;59862;47.732;7.346;2023-03-25T07:39:33;97776.63;;;6.80;84.02
71996;BME280;59862;47.732;7.346;2023-03-25T07:42:01;97779.64;;;6.77;84.80
71996;BME280;59862;47.732;7.346;2023-03-25T07:44:28;97805.81;;;6.81;85.67
71996;BME280;59862;47.732;7.346;2023-03-25T07:46:55;97804.30;;;6.83;86.22
71996;BME280;59862;47.732;7.346;2023-03-25T07:49:23;97815.14;;;6.73;86.77
71996;BME280;59862;47.732;7.346;2023-03-25T07:51:50;97811.89;;;6.50;87.37
71996;BME280;59862;47.732;7.346;2023-03-25T07:54:18;97827.50;;;6.37;88.54
71996;BME280;59862;47.732;7.346;2023-03-25T07:56:47;97832.52;;;6.36;89.27
71996;BME280;59862;47.732;7.346;2023-03-25T07:59:14;97830.82;;;6.31;89.35
71996;BME280;59862;47.732;7.346;2023-03-25T08:01:42;97831.48;;;6.29;89.70
71996;BME280;59862;47.732;7.346;2023-03-25T08:04:09;97835.28;;;6.22;89.92
71996;BME280;59862;47.732;7.346;2023-03-25T08:06:39;97832.44;;;6.20;90.12
71996;BME280;59862;47.732;7.346;2023-03-25T08:09:07;97837.45;;;6.19;90.60
71996;BME280;59862;47.732;7.346;2023-03-25T08:11:34;97850.78;;;6.23;91.08
71996;BME280;59862;47.732;7.346;2023-03-25T08:14:02;97854.59;;;6.20;91.37
71996;BME280;59862;47.732;7.346;2023-03-25T08:16:29;97849.27;;;6.20;91.65
71996;BME280;59862;47.732;7.346;2023-03-25T08:18:57;97852.75;;;6.17;91.95
71996;BME280;59862;47.732;7.346;2023-03-25T08:21:24;97842.41;;;6.13;92.16
71996;BME280;59862;47.732;7.346;2023-03-25T08:23:57;97842.41;;;6.13;92.33
71996;BME280;59862;47.732;7.346;2023-03-25T08:26:27;97841.63;;;6.21;92.56
71996;BME280;59862;47.732;7.346;2023-03-25T08:28:56;97854.42;;;6.22;92.74
71996;BME280;59862;47.732;7.346;2023-03-25T08:31:26;97851.95;;;6.28;92.83
71996;BME280;59862;47.732;7.346;2023-03-25T08:33:56;97863.48;;;6.37;93.03
71996;BME280;59862;47.732;7.346;2023-03-25T08:36:23;97853.82;;;6.32;93.08
71996;BME280;59862;47.732;7.346;2023-03-25T08:38:51;97849.45;;;6.27;93.21
71996;BME280;59862;47.732;7.346;2023-03-25T08:41:19;97848.48;;;6.28;93.37
71996;BME280;59862;47.732;7.346;2023-03-25T08:43:47;97853.45;;;6.27;93.51
71996;BME280;59862;47.732;7.346;2023-03-25T08:46:15;97854.81;;;6.35;93.70
71996;BME280;59862;47.732;7.346;2023-03-25T08:48:43;97849.84;;;6.40;93.82
71996;BME280;59862;47.732;7.346;2023-03-25T08:51:10;97846.20;;;6.45;93.97
71996;BME280;59862;47.732;7.346;2023-03-25T08:53:38;97841.86;;;6.44;93.98
71996;BME280;59862;47.732;7.346;2023-03-25T08:56:06;97848.14;;;6.31;93.61
71996;BME280;59862;47.732;7.346;2023-03-25T08:58:33;97854.39;;;6.13;93.06
71996;BME280;59862;47.732;7.346;2023-03-25T09:01:01;97854.46;;;5.96;92.42
71996;BME280;59862;47.732;7.346;2023-03-25T09:03:28;97850.92;;;5.87;91.94
71996;BME280;59862;47.732;7.346;2023-03-25T09:05:56;97866.22;;;5.85;91.73
71996;BME280;59862;47.732;7.346;2023-03-25T09:08:23;97874.63;;;5.77;91.67
71996;BME280;59862;47.732;7.346;2023-03-25T09:10:53;97879.06;;;5.68;91.84
71996;BME280;59862;47.732;7.346;2023-03-25T09:13:20;97878.36;;;5.62;91.95
71996;BME280;59862;47.732;7.346;2023-03-25T09:15:47;97874.31;;;5.54;91.95
71996;BME280;59862;47.732;7.346;2023-03-25T09:18:15;97874.66;;;5.59;92.13
71996;BME280;59862;47.732;7.346;2023-03-25T09:20:43;97862.03;;;5.61;92.21
71996;BME280;59862;47.732;7.346;2023-03-25T09:23:12;97860.22;;;5.62;91.96
71996;BME280;59862;47.732;7.346;2023-03-25T09:25:40;97862.43;;;5.70;92.09
71996;BME280;59862;47.732;7.346;2023-03-25T09:28:08;97849.35;;;5.81;91.96
71996;BME280;59862;47.732;7.346;2023-03-25T09:30:36;97863.11;;;5.94;91.73
71996;BME280;59862;47.732;7.346;2023-03-25T09:33:03;97853.75;;;6.20;91.69
71996;BME280;59862;47.732;7.346;2023-03-25T09:35:32;97846.89;;;6.51;91.43
71996;BME280;59862;47.732;7.346;2023-03-25T09:38:00;97851.68;;;7.13;91.66
71996;BME280;59862;47.732;7.346;2023-03-25T09:40:28;97850.69;;;7.67;90.29
71996;BME280;59862;47.732;7.346;2023-03-25T09:43:28;97852.45;;;8.57;88.02
71996;BME280;59862;47.732;7.346;2023-03-25T09:45:54;97867.27;;;8.29;82.36
71996;BME280;59862;47.732;7.346;2023-03-25T09:51:06;97857.62;;;9.39;79.50
71996;BME280;59862;47.732;7.346;2023-03-25T09:53:58;97844.53;;;9.44;78.35
71996;BME280;59862;47.732;7.346;2023-03-25T09:56:26;97844.53;;;9.44;77.01
71996;BME280;59862;47.732;7.346;2023-03-25T09:59:12;97852.23;;;9.80;77.98
71996;BME280;59862;47.732;7.346;2023-03-25T10:13:15;97856.27;;;11.18;72.50
71996;BME280;59862;47.732;7.346;2023-03-25T10:18:51;97861.75;;;10.34;74.12
71996;BME280;59862;47.732;7.346;2023-03-25T10:21:24;97864.34;;;10.28;77.09
71996;BME280;59862;47.732;7.346;2023-03-25T10:24:16;97865.81;;;10.45;76.52
71996;BME280;59862;47.732;7.346;2023-03-25T10:26:51;97856.76;;;9.98;75.72
71996;BME280;59862;47.732;7.346;2023-03-25T10:29:24;97857.96;;;10.43;74.17
71996;BME280;59862;47.732;7.346;2023-03-25T10:31:52;97845.51;;;10.97;73.37
71996;BME280;59862;47.732;7.346;2023-03-25T10:34:39;97850.31;;;11.01;73.79
71996;BME280;59862;47.732;7.346;2023-03-25T10:37:04;97842.67;;;10.84;73.64
71996;BME280;59862;47.732;7.346;2023-03-25T10:39:33;97849.41;;;11.05;72.46
71996;BME280;59862;47.732;7.346;2023-03-25T10:42:50;97847.20;;;11.29;72.39
71996;BME280;59862;47.732;7.346;2023-03-25T10:44:34;97848.23;;;11.39;70.43
71996;BME280;59862;47.732;7.346;2023-03-25T10:47:07;97808.17;;;11.44;68.77
71996;BME280;59862;47.732;7.346;2023-03-25T10:49:35;97845.52;;;11.18;69.42
71996;BME280;59862;47.732;7.346;2023-03-25T10:52:04;97841.73;;;10.66;70.21
71996;BME280;59862;47.732;7.346;2023-03-25T10:54:38;97842.28;;;10.61;71.83
71996;BME280;59862;47.732;7.346;2023-03-25T10:57:07;97848.46;;;10.51;71.87
71996;BME280;59862;47.732;7.346;2023-03-25T10:59:51;97844.67;;;10.31;72.04
71996;BME280;59862;47.732;7.346;2023-03-25T11:02:23;97847.88;;;10.45;71.26
71996;BME280;59862;47.732;7.346;2023-03-25T11:04:59;97841.11;;;10.75;71.60
71996;BME280;59862;47.732;7.346;2023-03-25T11:07:28;97836.66;;;11.38;69.82
71996;BME280;59862;47.732;7.346;2023-03-25T11:10:20;97840.66;;;13.07;68.34
71996;BME280;59862;47.732;7.346;2023-03-25T11:12:50;97841.58;;;13.93;62.04
71996;BME280;59862;47.732;7.346;2023-03-25T11:15:30;97834.31;;;13.47;60.29
71996;BME280;59862;47.732;7.346;2023-03-25T11:18:14;97856.34;;;13.97;59.53
71996;BME280;59862;47.732;7.346;2023-03-25T11:20:46;97849.99;;;14.75;58.12
71996;BME280;59862;47.732;7.346;2023-03-25T11:23:33;97846.98;;;13.80;58.97
71996;BME280;59862;47.732;7.346;2023-03-25T11:26:07;97849.17;;;13.17;60.36
71996;BME280;59862;47.732;7.346;2023-03-25T11:28:45;97836.64;;;12.90;62.35
71996;BME280;59862;47.732;7.346;2023-03-25T11:31:18;97855.56;;;12.79;61.45
71996;BME280;59862;47.732;7.346;2023-03-25T11:36:47;97847.52;;;12.62;61.58
71996;BME280;59862;47.732;7.346;2023-03-25T11:41:51;97849.52;;;11.43;64.60
71996;BME280;59862;47.732;7.346;2023-03-25T11:44:27;97854.19;;;11.34;65.37
71996;BME280;59862;47.732;7.346;2023-03-25T11:47:07;97849.23;;;11.80;63.58
71996;BME280;59862;47.732;7.346;2023-03-25T11:49:36;97871.45;;;12.34;60.39
71996;BME280;59862;47.732;7.346;2023-03-25T11:52:17;97855.19;;;13.19;59.84
71996;BME280;59862;47.732;7.346;2023-03-25T11:54:46;97845.16;;;13.00;59.11
71996;BME280;59862;47.732;7.346;2023-03-25T11:57:17;97851.27;;;12.98;59.08
71996;BME280;59862;47.732;7.346;2023-03-25T11:59:47;97847.53;;;13.16;61.25
71996;BME280;59862;47.732;7.346;2023-03-25T12:02:23;97849.02;;;13.38;61.57
71996;BME280;59862;47.732;7.346;2023-03-25T12:07:49;97842.71;;;12.24;65.06
71996;BME280;59862;47.732;7.346;2023-03-25T12:11:06;97841.36;;;11.15;68.52
71996;BME280;59862;47.732;7.346;2023-03-25T12:13:30;97843.80;;;10.49;71.95
71996;BME280;59862;47.732;7.346;2023-03-25T12:15:38;97850.08;;;10.82;72.65
71996;BME280;59862;47.732;7.346;2023-03-25T12:21:28;97835.35;;;12.04;63.42
71996;BME280;59862;47.732;7.346;2023-03-25T12:27:05;97816.67;;;13.38;60.22
71996;BME280;59862;47.732;7.346;2023-03-25T12:32:14;97827.06;;;13.54;58.73
71996;BME280;59862;47.732;7.346;2023-03-25T12:34:55;97823.27;;;14.47;57.12
71996;BME280;59862;47.732;7.346;2023-03-25T12:37:35;97823.66;;;14.79;56.19
71996;BME280;59862;47.732;7.346;2023-03-25T12:43:05;97811.50;;;15.24;55.60
71996;BME280;59862;47.732;7.346;2023-03-25T12:45:44;97841.84;;;14.81;55.13
71996;BME280;59862;47.732;7.346;2023-03-25T12:56:52;97836.00;;;13.94;57.77
71996;BME280;59862;47.732;7.346;2023-03-25T13:07:21;97863.45;;;9.79;73.34
71996;BME280;59862;47.732;7.346;2023-03-25T13:12:49;97854.46;;;9.12;77.35
71996;BME280;59862;47.732;7.346;2023-03-25T13:15:26;97853.38;;;9.03;80.01
71996;BME280;59862;47.732;7.346;2023-03-25T13:18:20;97870.88;;;8.83;82.25
71996;BME280;59862;47.732;7.346;2023-03-25T13:21:32;97870.94;;;8.28;82.78
71996;BME280;59862;47.732;7.346;2023-03-25T13:23:22;97880.36;;;7.92;84.42
71996;BME280;59862;47.732;7.346;2023-03-25T13:26:04;97874.72;;;7.50;84.36
71996;BME280;59862;47.732;7.346;2023-03-25T13:28:43;97871.70;;;7.49;85.67
71996;BME280;59862;47.732;7.346;2023-03-25T13:31:14;97865.69;;;7.51;86.57
71996;BME280;59862;47.732;7.346;2023-03-25T13:33:49;97849.36;;;7.50;87.02
71996;BME280;59862;47.732;7.346;2023-03-25T13:36:25;97841.31;;;7.79;86.45
71996;BME280;59862;47.732;7.346;2023-03-25T13:39:02;97802.84;;;12.81;69.92
71996;BME280;59862;47.732;7.346;2023-03-25T13:41:37;97802.84;;;12.81;69.92
71996;BME280;59862;47.732;7.346;2023-03-25T13:49:33;97814.31;;;16.95;56.89
71996;BME280;59862;47.732;7.346;2023-03-25T13:51:58;97816.91;;;18.97;53.22
71996;BME280;59862;47.732;7.346;2023-03-25T13:54:42;97822.91;;;20.31;48.53
71996;BME280;59862;47.732;7.346;2023-03-25T14:00:10;97827.48;;;19.10;47.43
71996;BME280;59862;47.732;7.346;2023-03-25T14:02:48;97822.63;;;18.98;48.71
71996;BME280;59862;47.732;7.346;2023-03-25T14:11:07;97820.84;;;17.05;52.49
71996;BME280;59862;47.732;7.346;2023-03-25T14:13:30;97826.77;;;15.43;56.95
71996;BME280;59862;47.732;7.346;2023-03-25T14:16:04;97819.39;;;14.59;58.91
71996;BME280;59862;47.732;7.346;2023-03-25T14:18:31;97812.22;;;14.07;60.88
71996;BME280;59862;47.732;7.346;2023-03-25T14:21:38;97824.75;;;13.38;62.58
71996;BME280;59862;47.732;7.346;2023-03-25T14:24:04;97820.95;;;13.69;62.08
71996;BME280;59862;47.732;7.346;2023-03-25T14:26:34;97819.34;;;15.32;58.36
71996;BME280;59862;47.732;7.346;2023-03-25T14:29:07;97821.48;;;15.61;54.89
71996;BME280;59862;47.732;7.346;2023-03-25T14:31:33;97818.33;;;14.88;58.77
71996;BME280;59862;47.732;7.346;2023-03-25T14:44:43;97834.54;;;11.34;69.06
71996;BME280;59862;47.732;7.346;2023-03-25T14:52:51;97842.03;;;11.28;69.69
71996;BME280;59862;47.732;7.346;2023-03-25T14:55:27;97840.11;;;10.76;69.79
71996;BME280;59862;47.732;7.346;2023-03-25T14:57:58;97842.67;;;10.44;70.12
71996;BME280;59862;47.732;7.346;2023-03-25T15:00:34;97847.01;;;10.20;71.17
71996;BME280;59862;47.732;7.346;2023-03-25T15:03:07;97857.06;;;9.99;73.86
71996;BME280;59862;47.732;7.346;2023-03-25T15:05:33;97857.06;;;9.99;73.86
71996;BME280;59862;47.732;7.346;2023-03-25T15:10:38;97857.20;;;9.87;72.19
71996;BME280;59862;47.732;7.346;2023-03-25T15:13:28;97845.64;;;9.86;72.01
71996;BME280;59862;47.732;7.346;2023-03-25T15:16:03;97839.75;;;10.24;69.15
71996;BME280;59862;47.732;7.346;2023-03-25T15:21:11;97826.00;;;10.88;66.89
71996;BME280;59862;47.732;7.346;2023-03-25T15:23:45;97818.87;;;11.16;64.15
71996;BME280;59862;47.732;7.346;2023-03-25T15:26:42;97807.92;;;11.28;63.43
71996;BME280;59862;47.732;7.346;2023-03-25T15:32:11;97807.94;;;11.39;63.78
71996;BME280;59862;47.732;7.346;2023-03-25T15:40:18;97815.59;;;11.42;62.83